Time;durP1;ratioP1;P1;durP2;ratioP2;P2;SDS_P1;SDS_P2;PMS_P1;PMS_P2;Temp;Humidity;BMP_temperature;BMP_pressure;BME280_temperature;BME280_humidity;BME280_pressure;Samples;Min_cycle;Max_cycle;Signal;HPM_P1;HPM_P2
2022/11/03 00:01:45;;;;;;;3.20;2.90;;;17.90;93.90;;;;;;5034053;28;20217;-69
2022/11/03 00:04:18;;;;;;;2.97;2.63;;;17.90;93.90;;;;;;5034514;28;20256;-69
2022/11/03 00:06:47;;;;;;;4.40;3.13;;;17.90;93.80;;;;;;5017603;28;20187;-69
2022/11/03 00:09:16;;;;;;;3.63;2.85;;;17.90;93.90;;;;;;5034460;28;20203;-69
2022/11/03 00:11:44;;;;;;;4.60;3.28;;;17.90;94.00;;;;;;5033930;28;20191;-68
2022/11/03 00:14:12;;;;;;;2.97;2.67;;;17.90;94.10;;;;;;5034028;28;20187;-69
2022/11/03 00:16:38;;;;;;;3.70;2.90;;;17.90;94.10;;;;;;5034236;28;20187;-69
2022/11/03 00:19:06;;;;;;;3.47;2.92;;;17.90;94.10;;;;;;5033765;28;20294;-69
2022/11/03 00:21:32;;;;;;;2.75;2.55;;;17.90;94.00;;;;;;5034904;28;20266;-69
2022/11/03 00:23:58;;;;;;;3.67;2.53;;;17.90;94.00;;;;;;5050421;28;20270;-68
2022/11/03 00:26:27;;;;;;;2.63;2.42;;;17.90;93.80;;;;;;5050766;28;20702;-69
2022/11/03 00:28:59;;;;;;;2.85;2.40;;;17.90;93.80;;;;;;5034072;28;20205;-68
2022/11/03 00:31:31;;;;;;;3.13;2.65;;;17.80;93.50;;;;;;5033476;28;20187;-69
2022/11/03 00:33:59;;;;;;;2.58;2.38;;;17.80;93.50;;;;;;5050404;28;20186;-66
2022/11/03 00:36:32;;;;;;;2.80;2.35;;;17.90;93.70;;;;;;5033693;28;20188;-69
2022/11/03 00:38:58;;;;;;;2.67;2.45;;;17.90;93.50;;;;;;5033606;28;20289;-69
2022/11/03 00:41:25;;;;;;;3.00;2.70;;;17.80;93.60;;;;;;5033378;28;20187;-69
2022/11/03 00:43:52;;;;;;;2.67;2.47;;;17.90;93.40;;;;;;5016874;28;20321;-68
2022/11/03 00:46:20;;;;;;;3.20;2.60;;;17.90;93.60;;;;;;5033434;28;20211;-69
2022/11/03 00:48:46;;;;;;;3.28;2.85;;;17.80;93.50;;;;;;5040511;28;20214;-69
2022/11/03 00:51:24;;;;;;;2.90;2.50;;;17.80;93.50;;;;;;5033504;28;20187;-68
2022/11/03 00:53:55;;;;;;;2.45;2.20;;;17.90;93.50;;;;;;5017016;28;20709;-68
2022/11/03 00:56:27;;;;;;;2.90;2.65;;;17.90;93.70;;;;;;5033402;28;20581;-68
2022/11/03 00:58:55;;;;;;;2.60;2.40;;;17.90;93.70;;;;;;5033419;28;20306;-68
2022/11/03 01:01:30;;;;;;;2.95;2.55;;;17.80;93.60;;;;;;5032668;28;20211;-69
2022/11/03 01:06:51;;;;;;;3.72;2.33;;;17.80;93.40;;;;;;5033382;28;20187;-69
2022/11/03 01:09:23;;;;;;;3.40;2.60;;;17.80;93.20;;;;;;5016543;28;20213;-69
2022/11/03 01:11:59;;;;;;;2.92;2.50;;;17.80;92.90;;;;;;5016646;28;20195;-68
2022/11/03 01:14:34;;;;;;;2.75;2.50;;;17.80;93.00;;;;;;5033291;28;20190;-68
2022/11/03 01:17:03;;;;;;;3.13;2.53;;;17.80;93.20;;;;;;5041405;28;20175;-69
2022/11/03 01:19:29;;;;;;;2.60;2.40;;;17.80;94.00;;;;;;5032050;28;20206;-68
2022/11/03 01:21:55;;;;;;;2.35;2.15;;;17.80;93.50;;;;;;5069497;28;20249;-69
2022/11/03 01:24:21;;;;;;;3.67;2.63;;;17.80;93.40;;;;;;5052919;28;20193;-68
2022/11/03 01:26:47;;;;;;;2.88;2.58;;;17.80;93.50;;;;;;5052760;28;20257;-69
2022/11/03 01:29:13;;;;;;;2.67;2.33;;;17.80;93.40;;;;;;5052744;28;20241;-68
2022/11/03 01:31:39;;;;;;;2.95;2.15;;;17.80;93.40;;;;;;5035731;28;20179;-69
2022/11/03 01:34:04;;;;;;;2.60;2.28;;;17.80;93.20;;;;;;5035855;28;20186;-68
2022/11/03 01:36:30;;;;;;;2.67;2.20;;;17.80;93.20;;;;;;5052431;28;20183;-69
2022/11/03 01:38:56;;;;;;;2.85;2.38;;;17.80;92.90;;;;;;5036596;28;20210;-69
2022/11/03 01:41:27;;;;;;;2.55;2.35;;;17.80;92.90;;;;;;5049053;28;20252;-69
2022/11/03 01:44:08;;;;;;;2.70;2.50;;;17.80;93.00;;;;;;5016204;28;20179;-69
2022/11/03 01:47:01;;;;;;;2.20;2.00;;;17.80;92.80;;;;;;5026006;28;20199;-69
2022/11/03 01:49:40;;;;;;;2.60;2.40;;;17.80;92.80;;;;;;5049869;28;20214;-69
2022/11/03 01:52:22;;;;;;;2.38;2.13;;;17.80;93.10;;;;;;5035687;28;20276;-69
2022/11/03 01:54:59;;;;;;;2.63;2.33;;;17.80;93.20;;;;;;5045171;28;20178;-69
2022/11/03 01:57:38;;;;;;;2.42;2.03;;;17.80;93.20;;;;;;5071941;28;20269;-69
2022/11/03 02:00:05;;;;;;;2.92;2.63;;;17.80;93.10;;;;;;5071690;28;20232;-68
2022/11/03 02:02:39;;;;;;;2.95;2.58;;;17.80;92.80;;;;;;5073349;28;20176;-69
2022/11/03 02:05:06;;;;;;;2.30;2.10;;;17.80;92.60;;;;;;5072161;28;20227;-69
2022/11/03 02:08:16;;;;;;;2.25;1.98;;;17.80;92.70;;;;;;5072188;28;20177;-69
2022/11/03 02:10:46;;;;;;;3.42;2.33;;;17.80;92.80;;;;;;5071871;28;20319;-68
2022/11/03 02:13:19;;;;;;;2.67;2.20;;;17.80;92.80;;;;;;5071832;28;20210;-69
2022/11/03 02:15:48;;;;;;;3.20;2.50;;;17.80;93.00;;;;;;5070349;28;20196;-69
2022/11/03 02:18:18;;;;;;;2.63;2.42;;;17.80;92.80;;;;;;5045615;28;20276;-69
2022/11/03 02:20:54;;;;;;;2.88;2.55;;;17.80;93.00;;;;;;5032651;28;20200;-69
2022/11/03 02:23:31;;;;;;;4.00;2.05;;;17.80;92.90;;;;;;5048540;28;20175;-69
2022/11/03 02:25:59;;;;;;;2.65;2.40;;;17.80;92.70;;;;;;5031644;28;20189;-69
2022/11/03 02:28:29;;;;;;;2.60;2.40;;;17.80;92.60;;;;;;5048060;28;20199;-69
2022/11/03 02:31:14;;;;;;;2.58;2.35;;;17.80;92.60;;;;;;5048094;28;20176;-69
2022/11/03 02:33:55;;;;;;;2.92;2.30;;;17.70;92.50;;;;;;5048110;28;20237;-69
2022/11/03 02:36:52;;;;;;;2.33;2.13;;;17.70;92.20;;;;;;5015328;28;20259;-69
2022/11/03 02:39:41;;;;;;;2.58;2.10;;;17.80;92.60;;;;;;5031410;28;20211;-69
2022/11/03 02:42:10;;;;;;;2.90;2.45;;;17.80;92.80;;;;;;5048150;28;20187;-68
2022/11/03 02:44:37;;;;;;;2.40;2.20;;;17.80;92.30;;;;;;5031687;28;20183;-68
2022/11/03 02:47:08;;;;;;;3.13;2.83;;;17.70;92.40;;;;;;5031510;28;20187;-69
2022/11/03 02:49:49;;;;;;;2.60;2.40;;;17.70;92.40;;;;;;5030887;28;20221;-69
2022/11/03 02:52:41;;;;;;;2.33;2.08;;;17.80;92.30;;;;;;5051211;28;20179;-69
2022/11/03 02:55:52;;;;;;;2.28;2.08;;;17.80;92.60;;;;;;5051221;28;20221;-69
2022/11/03 02:58:24;;;;;;;2.30;2.10;;;17.70;92.50;;;;;;5051045;28;20178;-69
2022/11/03 03:01:04;;;;;;;2.50;2.30;;;17.70;92.20;;;;;;5034452;28;20210;-69
2022/11/03 03:03:45;;;;;;;2.97;2.67;;;17.70;92.20;;;;;;5034487;28;20178;-69
2022/11/03 03:06:24;;;;;;;3.35;2.10;;;17.80;92.20;;;;;;5067840;28;20280;-69
2022/11/03 03:08:58;;;;;;;2.30;2.10;;;17.70;92.20;;;;;;5034373;28;20259;-69
2022/11/03 03:11:56;;;;;;;2.20;2.00;;;17.70;92.20;;;;;;5050906;28;20194;-69
2022/11/03 03:14:21;;;;;;;2.50;2.28;;;17.70;92.50;;;;;;5049145;28;20202;-69
2022/11/03 03:16:59;;;;;;;2.97;2.20;;;17.70;92.60;;;;;;5049439;28;20198;-69
2022/11/03 03:19:51;;;;;;;2.60;2.40;;;17.70;92.20;;;;;;5036936;28;20226;-69
2022/11/03 03:22:54;;;;;;;4.22;2.15;;;17.70;92.00;;;;;;5030921;28;20183;-69
2022/11/03 03:25:52;;;;;;;2.65;2.20;;;17.70;92.30;;;;;;5034629;28;20274;-69
2022/11/03 03:28:35;;;;;;;2.60;2.20;;;17.70;92.50;;;;;;5036419;28;20175;-69
2022/11/03 03:31:07;;;;;;;2.28;2.08;;;17.70;92.20;;;;;;5018317;28;20191;-69
2022/11/03 03:33:34;;;;;;;2.80;2.35;;;17.70;92.10;;;;;;5036088;28;20572;-69
2022/11/03 03:36:05;;;;;;;2.60;2.30;;;17.70;92.00;;;;;;5034955;28;20241;-69
2022/11/03 03:38:39;;;;;;;2.55;2.35;;;17.70;92.00;;;;;;5034740;28;20242;-69
2022/11/03 03:41:09;;;;;;;2.20;2.00;;;17.70;91.70;;;;;;5034592;28;20227;-69
2022/11/03 03:43:35;;;;;;;2.63;2.42;;;17.70;91.70;;;;;;5034690;28;20184;-68
2022/11/03 03:46:10;;;;;;;2.17;1.98;;;17.70;91.50;;;;;;5038719;28;20178;-69
2022/11/03 03:48:36;;;;;;;2.40;2.20;;;17.70;92.00;;;;;;5051038;28;20226;-68
2022/11/03 03:51:05;;;;;;;2.25;2.05;;;17.70;92.00;;;;;;5046118;28;20190;-69
2022/11/03 03:53:31;;;;;;;3.30;2.22;;;17.70;92.20;;;;;;5054294;28;20277;-69
2022/11/03 03:55:58;;;;;;;2.45;2.25;;;17.70;92.00;;;;;;5033372;28;20203;-69
2022/11/03 03:58:24;;;;;;;2.38;2.17;;;17.70;92.10;;;;;;5054224;28;20186;-68
2022/11/03 04:00:49;;;;;;;2.33;2.13;;;17.70;92.20;;;;;;5045422;28;20217;-69
2022/11/03 04:03:17;;;;;;;2.30;1.95;;;17.70;92.10;;;;;;5037589;28;20221;-69
2022/11/03 04:05:44;;;;;;;2.60;2.38;;;17.70;92.10;;;;;;5037769;28;20187;-69
2022/11/03 04:08:12;;;;;;;2.33;2.00;;;17.70;92.00;;;;;;5053965;28;20182;-68
2022/11/03 04:10:38;;;;;;;3.05;2.42;;;17.70;91.90;;;;;;5055201;28;20186;-68
2022/11/03 04:24:03;;;;;;;2.40;2.10;;;17.70;91.70;;;;;;5050852;28;20207;-68
2022/11/03 04:26:28;;;;;;;2.30;1.90;;;17.70;91.90;;;;;;5050763;28;20191;-69
2022/11/03 04:28:56;;;;;;;2.35;2.15;;;17.70;92.00;;;;;;5034015;28;20210;-68
2022/11/03 04:31:22;;;;;;;2.22;1.90;;;17.70;91.90;;;;;;5033433;28;20189;-68
2022/11/03 04:33:48;;;;;;;3.15;2.20;;;17.70;91.90;;;;;;5033936;28;20187;-69
2022/11/03 04:36:23;;;;;;;2.33;2.13;;;17.70;91.80;;;;;;5032430;28;20186;-69
2022/11/03 04:38:51;;;;;;;2.20;2.00;;;17.70;91.70;;;;;;5033811;28;20293;-68
2022/11/03 04:41:27;;;;;;;2.60;2.20;;;17.70;91.50;;;;;;5050087;28;20294;-69
2022/11/03 04:43:54;;;;;;;1.98;1.80;;;17.70;91.50;;;;;;5017134;28;20182;-69
2022/11/03 04:46:28;;;;;;;2.78;2.13;;;17.70;91.50;;;;;;5034658;28;20183;-69
2022/11/03 04:48:59;;;;;;;3.40;2.38;;;17.70;91.50;;;;;;5044139;28;20211;-69
2022/11/03 04:51:30;;;;;;;2.58;2.10;;;17.70;91.90;;;;;;5053479;28;20195;-69
2022/11/03 04:54:05;;;;;;;1.98;1.88;;;17.70;91.60;;;;;;5053380;28;20189;-69
2022/11/03 04:56:32;;;;;;;2.55;2.00;;;17.70;91.50;;;;;;5036888;28;20190;-69
2022/11/03 04:58:58;;;;;;;2.00;1.83;;;17.70;91.60;;;;;;5053031;28;20242;-68
2022/11/03 05:01:26;;;;;;;2.17;1.98;;;17.70;91.50;;;;;;5036214;28;20238;-69
2022/11/03 05:03:53;;;;;;;2.45;2.25;;;17.70;91.60;;;;;;5053001;28;20189;-69
2022/11/03 05:06:23;;;;;;;2.42;2.00;;;17.70;91.50;;;;;;5053132;28;20719;-69
2022/11/03 05:08:57;;;;;;;2.80;2.30;;;17.70;91.80;;;;;;5036707;28;20213;-69
2022/11/03 05:11:38;;;;;;;2.40;2.20;;;17.60;91.40;;;;;;5052952;28;20186;-69
2022/11/03 05:14:24;;;;;;;2.28;2.08;;;17.60;91.30;;;;;;5036343;28;20186;-69
2022/11/03 05:16:52;;;;;;;2.55;2.30;;;17.70;91.10;;;;;;5036208;28;20236;-69
2022/11/03 05:19:38;;;;;;;2.25;2.00;;;17.60;91.10;;;;;;5046715;28;20230;-68
2022/11/03 05:22:14;;;;;;;2.10;1.90;;;17.60;91.40;;;;;;5016218;28;20191;-69
2022/11/03 05:24:40;;;;;;;2.47;2.22;;;17.70;91.50;;;;;;5032723;28;20238;-69
2022/11/03 05:27:29;;;;;;;2.47;2.28;;;17.60;91.40;;;;;;5032947;28;20267;-69
2022/11/03 05:29:58;;;;;;;2.38;2.15;;;17.60;91.40;;;;;;5032942;28;20219;-68
2022/11/03 05:32:32;;;;;;;2.97;2.20;;;17.70;91.50;;;;;;5033669;28;20233;-68
2022/11/03 05:34:58;;;;;;;2.22;2.03;;;17.60;91.20;;;;;;5032665;28;20651;-69
2022/11/03 05:37:25;;;;;;;2.20;2.00;;;17.70;91.20;;;;;;5016149;28;20179;-69
2022/11/03 05:39:56;;;;;;;2.83;2.20;;;17.70;91.20;;;;;;5016221;28;20243;-68
2022/11/03 05:42:22;;;;;;;2.53;2.22;;;17.60;91.20;;;;;;5032345;28;20194;-69
2022/11/03 05:44:50;;;;;;;2.30;2.10;;;17.60;90.90;;;;;;5016325;28;20179;-68
2022/11/03 05:47:31;;;;;;;2.00;1.80;;;17.60;91.00;;;;;;5023162;28;20202;-69
2022/11/03 05:50:18;;;;;;;2.33;1.98;;;17.60;91.00;;;;;;5040734;28;20214;-69
2022/11/03 05:52:47;;;;;;;2.25;2.05;;;17.70;91.10;;;;;;5048882;28;20183;-69
2022/11/03 05:55:39;;;;;;;1.83;1.70;;;17.60;91.30;;;;;;5033366;28;20233;-69
2022/11/03 05:58:23;;;;;;;2.45;2.17;;;17.60;91.30;;;;;;5031050;28;20269;-69
2022/11/03 06:00:49;;;;;;;2.35;2.15;;;17.60;91.20;;;;;;5032082;28;20294;-68
2022/11/03 06:03:29;;;;;;;2.88;2.50;;;17.60;90.90;;;;;;5032391;28;20291;-69
2022/11/03 06:05:58;;;;;;;2.53;2.00;;;17.60;90.90;;;;;;5033198;28;20258;-69
2022/11/03 06:08:32;;;;;;;2.25;2.00;;;17.60;90.80;;;;;;5031870;28;20195;-70
2022/11/03 06:11:00;;;;;;;2.25;2.05;;;17.60;90.90;;;;;;5032007;28;20193;-69
2022/11/03 06:13:32;;;;;;;2.88;2.03;;;17.60;90.90;;;;;;5033164;28;20237;-69
2022/11/03 06:16:19;;;;;;;2.30;2.10;;;17.60;91.10;;;;;;5048349;28;20211;-68
2022/11/03 06:18:46;;;;;;;2.67;2.08;;;17.60;91.30;;;;;;5046112;28;20226;-69
2022/11/03 06:21:20;;;;;;;2.35;2.03;;;17.60;91.20;;;;;;5035108;28;20212;-68
2022/11/03 06:23:46;;;;;;;2.58;2.15;;;17.60;91.20;;;;;;5052791;28;20182;-69
2022/11/03 06:26:26;;;;;;;2.60;2.25;;;17.60;90.90;;;;;;5051369;28;20193;-69
2022/11/03 06:28:52;;;;;;;2.70;2.33;;;17.60;90.80;;;;;;5051319;28;20209;-68
2022/11/03 06:31:28;;;;;;;2.28;2.08;;;17.60;90.70;;;;;;5052325;28;20240;-69
2022/11/03 06:33:57;;;;;;;2.65;2.25;;;17.60;90.60;;;;;;5034753;28;20193;-69
2022/11/03 06:36:33;;;;;;;2.58;2.17;;;17.60;90.70;;;;;;5033920;28;20192;-69
2022/11/03 06:39:20;;;;;;;2.42;2.22;;;17.60;90.70;;;;;;5050102;28;20252;-69
2022/11/03 06:41:45;;;;;;;2.10;1.90;;;17.60;90.80;;;;;;5052330;28;20228;-69
2022/11/03 06:44:29;;;;;;;2.53;2.33;;;17.60;90.80;;;;;;5051554;28;20182;-68
2022/11/03 06:47:07;;;;;;;2.42;2.20;;;17.60;90.90;;;;;;5052472;28;20175;-69
2022/11/03 06:49:35;;;;;;;2.63;2.30;;;17.60;90.90;;;;;;5034709;28;20224;-69
2022/11/03 06:52:29;;;;;;;2.30;2.10;;;17.60;90.70;;;;;;5052151;28;20182;-69
2022/11/03 06:55:05;;;;;;;2.83;2.53;;;17.60;90.90;;;;;;5052301;28;20228;-69
2022/11/03 06:57:37;;;;;;;2.40;2.20;;;17.60;90.50;;;;;;5051015;28;20193;-69
2022/11/03 07:00:24;;;;;;;2.40;2.20;;;17.60;90.40;;;;;;5033906;28;20643;-69
2022/11/03 07:03:01;;;;;;;2.40;2.20;;;17.60;90.60;;;;;;5051385;28;20178;-69
2022/11/03 07:05:30;;;;;;;2.63;2.10;;;17.60;90.80;;;;;;5034466;28;20182;-69
2022/11/03 07:08:00;;;;;;;2.60;2.40;;;17.60;90.80;;;;;;5034580;28;20256;-69
2022/11/03 07:10:30;;;;;;;2.53;2.33;;;17.60;90.70;;;;;;5050737;28;20214;-68
2022/11/03 07:13:13;;;;;;;2.92;2.20;;;17.60;90.70;;;;;;5050922;28;20209;-69
2022/11/03 07:15:42;;;;;;;2.67;2.30;;;17.60;90.50;;;;;;5050781;28;20178;-68
2022/11/03 07:18:40;;;;;;;2.50;2.30;;;17.60;90.50;;;;;;5034505;28;20217;-69
2022/11/03 07:21:29;;;;;;;2.63;2.40;;;17.60;90.40;;;;;;5046885;28;20222;-69
2022/11/03 07:23:59;;;;;;;3.47;2.33;;;17.60;90.50;;;;;;5019233;28;20554;-69
2022/11/03 07:26:26;;;;;;;2.80;2.20;;;17.60;90.50;;;;;;5034237;28;20185;-69
2022/11/03 07:28:53;;;;;;;2.47;2.15;;;17.60;90.30;;;;;;5034015;28;20282;-69
2022/11/03 07:31:23;;;;;;;2.53;2.10;;;17.60;90.40;;;;;;5050671;28;20213;-69
2022/11/03 07:33:55;;;;;;;3.00;2.70;;;17.60;90.20;;;;;;5051167;28;20173;-69
2022/11/03 07:36:24;;;;;;;3.10;2.47;;;17.60;90.20;;;;;;5050814;28;20186;-69
2022/11/03 07:38:53;;;;;;;4.53;3.05;;;17.60;90.30;;;;;;5034355;28;20244;-69
2022/11/03 07:41:25;;;;;;;3.28;2.75;;;17.70;90.30;;;;;;5050441;28;20225;-69
2022/11/03 07:43:59;;;;;;;2.97;2.70;;;17.60;90.10;;;;;;5040897;28;20202;-69
2022/11/03 07:46:26;;;;;;;3.15;2.80;;;17.70;90.30;;;;;;5031946;28;20254;-69
2022/11/03 07:49:01;;;;;;;2.90;2.60;;;17.70;90.20;;;;;;5031820;28;20211;-69
2022/11/03 07:51:32;;;;;;;2.70;2.30;;;17.70;90.20;;;;;;5030523;28;20197;-68
2022/11/03 07:54:39;;;;;;;2.97;2.67;;;17.60;90.20;;;;;;5035532;28;20197;-69
2022/11/03 07:57:09;;;;;;;3.03;2.72;;;17.70;90.30;;;;;;5009488;28;20211;-69
2022/11/03 07:59:42;;;;;;;2.88;2.35;;;17.70;90.30;;;;;;5030628;28;20255;-69
2022/11/03 08:02:29;;;;;;;4.03;2.63;;;17.70;90.30;;;;;;5027926;28;20174;-69
2022/11/03 08:04:55;;;;;;;2.83;2.45;;;17.70;90.30;;;;;;5045693;28;20179;-69
2022/11/03 08:07:20;;;;;;;3.22;2.88;;;17.70;90.20;;;;;;5047491;28;20182;-69
2022/11/03 08:09:46;;;;;;;2.65;2.45;;;17.70;90.30;;;;;;5035133;28;20202;-68
2022/11/03 08:12:12;;;;;;;4.15;2.95;;;17.70;90.30;;;;;;5033621;28;20190;-69
2022/11/03 08:14:38;;;;;;;2.50;2.30;;;17.70;90.20;;;;;;5026674;28;20677;-69
2022/11/03 08:17:04;;;;;;;3.20;2.60;;;17.70;90.20;;;;;;5040569;28;20182;-69
2022/11/03 08:19:30;;;;;;;2.55;2.35;;;17.70;90.40;;;;;;5033493;28;20203;-69
2022/11/03 08:21:56;;;;;;;2.75;2.55;;;17.70;90.40;;;;;;5029996;28;20214;-69
2022/11/03 08:24:22;;;;;;;3.40;2.50;;;17.70;90.30;;;;;;5040864;28;20194;-69
2022/11/03 08:26:48;;;;;;;2.70;2.50;;;17.70;90.30;;;;;;5018423;28;20183;-68
2022/11/03 08:29:16;;;;;;;3.38;2.70;;;17.70;90.30;;;;;;5029875;28;20487;-69
2022/11/03 08:31:42;;;;;;;3.17;2.63;;;17.70;90.30;;;;;;5040030;28;20199;-69
2022/11/03 08:34:09;;;;;;;2.70;2.30;;;17.70;90.40;;;;;;5048463;28;20183;-69
2022/11/03 08:36:35;;;;;;;3.05;2.65;;;17.70;90.40;;;;;;5047567;28;20214;-69
2022/11/03 08:39:01;;;;;;;3.03;2.42;;;17.80;90.40;;;;;;5054031;28;20259;-69
2022/11/03 08:41:26;;;;;;;2.83;2.40;;;17.80;90.40;;;;;;5043438;28;20210;-69
2022/11/03 08:43:52;;;;;;;3.15;2.30;;;17.80;90.50;;;;;;5053263;28;20186;-69
2022/11/03 08:46:18;;;;;;;3.95;2.85;;;17.80;90.50;;;;;;5029202;28;20183;-68
2022/11/03 08:48:44;;;;;;;2.88;2.58;;;17.80;90.50;;;;;;5038499;28;20214;-68
2022/11/03 08:51:12;;;;;;;2.83;2.63;;;17.80;90.60;;;;;;5036400;28;20174;-68
2022/11/03 08:53:39;;;;;;;2.92;2.63;;;17.80;90.70;;;;;;5053244;28;20179;-69
2022/11/03 08:56:05;;;;;;;2.88;2.67;;;17.80;90.80;;;;;;5036612;28;20681;-69
2022/11/03 08:58:31;;;;;;;2.45;2.22;;;17.80;90.70;;;;;;5049780;28;20214;-69
2022/11/03 09:00:57;;;;;;;2.33;2.13;;;17.80;90.70;;;;;;5033124;28;20214;-68
2022/11/03 09:03:23;;;;;;;2.60;2.35;;;17.80;90.80;;;;;;5033392;28;20190;-70
2022/11/03 09:05:49;;;;;;;3.15;2.55;;;17.80;90.80;;;;;;5044667;28;20175;-69
2022/11/03 09:08:15;;;;;;;3.35;2.53;;;17.80;90.80;;;;;;5036335;28;20188;-68
2022/11/03 09:10:41;;;;;;;2.50;2.30;;;17.80;90.90;;;;;;5032818;28;20175;-68
2022/11/03 09:13:07;;;;;;;2.22;2.03;;;17.80;90.90;;;;;;5032934;28;20211;-68
2022/11/03 09:15:33;;;;;;;2.55;2.35;;;17.80;90.80;;;;;;5030030;28;20185;-69
2022/11/03 09:17:59;;;;;;;2.97;2.67;;;17.80;90.90;;;;;;5035912;28;20193;-68
2022/11/03 09:20:25;;;;;;;2.60;2.13;;;17.90;90.90;;;;;;5052428;28;20202;-69
2022/11/03 09:22:51;;;;;;;2.80;1.88;;;17.90;90.90;;;;;;5035656;28;20189;-68
2022/11/03 09:25:18;;;;;;;3.13;2.65;;;17.80;90.80;;;;;;5052652;28;20194;-69
2022/11/03 09:27:44;;;;;;;3.67;2.30;;;17.90;90.80;;;;;;5035998;28;20210;-69
2022/11/03 09:30:10;;;;;;;3.55;2.50;;;17.90;90.90;;;;;;5032581;28;20199;-69
2022/11/03 09:32:37;;;;;;;2.58;2.00;;;17.80;90.90;;;;;;5032508;28;20233;-68
2022/11/03 09:35:04;;;;;;;2.83;2.10;;;17.90;91.00;;;;;;5032842;28;20210;-69
2022/11/03 09:37:30;;;;;;;2.58;2.00;;;17.90;90.90;;;;;;5032523;28;20233;-69
2022/11/03 09:39:56;;;;;;;2.13;1.90;;;17.90;91.00;;;;;;5064745;28;20218;-69
2022/11/03 09:42:24;;;;;;;2.45;2.00;;;17.80;91.00;;;;;;5051996;28;20225;-69
2022/11/03 09:44:53;;;;;;;2.40;2.15;;;17.80;91.10;;;;;;5052390;28;20179;-69
2022/11/03 09:47:34;;;;;;;2.65;2.00;;;17.90;91.10;;;;;;5052546;28;20197;-69
2022/11/03 09:50:00;;;;;;;2.60;2.40;;;17.90;91.10;;;;;;5052298;28;20220;-69
2022/11/03 09:52:26;;;;;;;2.05;1.85;;;17.90;91.10;;;;;;5033800;28;20198;-69
2022/11/03 09:54:56;;;;;;;2.53;2.22;;;17.90;91.10;;;;;;5049040;28;20180;-69
2022/11/03 09:57:25;;;;;;;2.40;2.20;;;17.90;91.20;;;;;;5028129;28;20182;-69
2022/11/03 09:59:51;;;;;;;2.03;1.80;;;17.90;91.10;;;;;;5051769;28;20265;-69
2022/11/03 10:02:29;;;;;;;2.10;1.90;;;17.90;91.10;;;;;;5043674;28;20212;-69
2022/11/03 10:05:00;;;;;;;5.43;2.20;;;17.90;91.20;;;;;;5035751;28;20178;-69
2022/11/03 10:07:29;;;;;;;2.20;1.98;;;17.90;91.20;;;;;;5052163;28;20171;-67
2022/11/03 10:09:58;;;;;;;1.90;1.80;;;17.90;91.30;;;;;;5048494;28;20288;-69
2022/11/03 10:12:25;;;;;;;2.58;1.95;;;17.90;91.30;;;;;;5031706;28;20191;-69
2022/11/03 10:14:53;;;;;;;2.03;1.83;;;17.90;91.40;;;;;;5032231;28;20191;-69
2022/11/03 10:17:25;;;;;;;2.60;2.22;;;17.90;91.30;;;;;;5031804;28;20194;-68
2022/11/03 10:19:55;;;;;;;2.33;2.15;;;17.90;91.50;;;;;;5031683;28;20281;-68
2022/11/03 10:22:21;;;;;;;2.08;1.80;;;17.90;91.60;;;;;;5031919;28;20183;-69
2022/11/03 10:24:48;;;;;;;2.30;2.10;;;17.90;91.60;;;;;;5032839;28;20184;-68
2022/11/03 10:27:24;;;;;;;2.28;1.88;;;17.90;91.60;;;;;;5031486;28;20241;-68
2022/11/03 10:30:09;;;;;;;2.85;2.55;;;17.90;91.60;;;;;;5046708;28;20202;-68
2022/11/03 10:32:35;;;;;;;3.53;2.10;;;17.90;91.60;;;;;;5050989;28;20232;-68
2022/11/03 10:35:22;;;;;;;3.65;2.13;;;17.90;91.50;;;;;;5034302;28;20210;-69
2022/11/03 10:37:48;;;;;;;3.28;1.98;;;17.90;91.50;;;;;;5034621;28;20272;-69
2022/11/03 10:40:35;;;;;;;2.75;2.28;;;17.90;91.40;;;;;;5034587;28;20222;-69
2022/11/03 10:43:00;;;;;;;2.22;1.90;;;17.90;91.40;;;;;;5051267;28;20231;-68
2022/11/03 10:45:26;;;;;;;1.80;1.70;;;17.90;91.60;;;;;;5034953;28;20615;-69
2022/11/03 10:48:05;;;;;;;2.72;1.80;;;17.90;91.60;;;;;;5051246;28;20182;-69
2022/11/03 10:50:32;;;;;;;2.30;1.90;;;17.90;91.60;;;;;;5051233;28;20218;-68
2022/11/03 10:52:58;;;;;;;3.33;2.10;;;17.90;91.60;;;;;;5034292;28;20186;-68
2022/11/03 10:55:25;;;;;;;2.95;1.80;;;17.90;91.60;;;;;;5051009;28;20186;-68
2022/11/03 10:57:54;;;;;;;1.80;1.70;;;17.90;91.60;;;;;;5050861;28;20190;-68
2022/11/03 11:00:20;;;;;;;2.45;1.85;;;17.90;91.60;;;;;;5034704;28;20218;-69
2022/11/03 11:02:47;;;;;;;1.98;1.80;;;17.90;91.70;;;;;;5052245;28;20170;-69
2022/11/03 11:05:21;;;;;;;3.45;2.08;;;17.90;91.60;;;;;;5034465;28;20178;-68
2022/11/03 11:07:50;;;;;;;1.95;1.85;;;18.00;91.60;;;;;;5051482;28;20181;-68
2022/11/03 11:10:32;;;;;;;1.63;1.52;;;18.00;91.60;;;;;;5034421;28;20580;-68
2022/11/03 11:13:17;;;;;;;2.65;2.00;;;18.00;91.60;;;;;;5051176;28;20260;-68
2022/11/03 11:15:50;;;;;;;1.85;1.63;;;18.00;91.60;;;;;;5034655;28;20194;-68
2022/11/03 11:18:45;;;;;;;2.53;1.80;;;18.00;91.60;;;;;;5034487;28;20247;-68
2022/11/03 11:21:16;;;;;;;2.53;2.22;;;18.00;91.70;;;;;;5021209;28;20257;-70
2022/11/03 11:23:44;;;;;;;2.28;1.98;;;18.00;91.60;;;;;;5050869;28;20175;-70
2022/11/03 11:26:24;;;;;;;5.13;2.05;;;18.00;91.60;;;;;;5030763;28;20204;-70
2022/11/03 11:29:08;;;;;;;2.30;2.10;;;18.00;91.70;;;;;;5039900;28;20278;-70
2022/11/03 11:31:41;;;;;;;2.55;1.90;;;18.00;91.60;;;;;;5047318;28;20290;-69
2022/11/03 11:34:11;;;;;;;2.50;1.50;;;18.00;91.60;;;;;;5030897;28;20211;-69
2022/11/03 11:36:44;;;;;;;1.85;1.67;;;18.00;91.60;;;;;;5044791;28;20186;-69
2022/11/03 11:39:19;;;;;;;3.17;1.80;;;18.00;91.80;;;;;;5046960;28;20290;-69
2022/11/03 11:42:16;;;;;;;3.70;2.05;;;18.00;91.80;;;;;;5050361;28;20213;-70
2022/11/03 11:44:42;;;;;;;2.97;1.63;;;18.00;91.90;;;;;;5035275;28;20186;-69
2022/11/03 11:47:27;;;;;;;2.20;1.83;;;18.00;91.90;;;;;;5038008;28;20186;-69
2022/11/03 11:50:22;;;;;;;2.70;1.83;;;18.00;91.60;;;;;;5054438;28;20214;-69
2022/11/03 11:53:06;;;;;;;1.83;1.73;;;18.00;91.60;;;;;;5052536;28;20212;-69
2022/11/03 11:55:49;;;;;;;2.45;1.90;;;18.00;91.80;;;;;;5037794;28;20171;-70
2022/11/03 11:58:22;;;;;;;2.30;1.88;;;18.00;91.80;;;;;;5037665;28;20185;-70
2022/11/03 12:01:02;;;;;;;2.67;1.85;;;18.00;92.10;;;;;;5037375;28;20202;-68
2022/11/03 12:03:35;;;;;;;2.60;1.92;;;18.00;91.90;;;;;;5043091;28;20180;-69
2022/11/03 12:06:02;;;;;;;3.03;1.80;;;18.00;91.70;;;;;;5034304;28;20187;-70
2022/11/03 12:08:30;;;;;;;3.65;2.10;;;18.00;91.90;;;;;;5050909;28;20196;-70
2022/11/03 12:11:02;;;;;;;3.30;1.90;;;18.00;91.80;;;;;;5049294;28;20194;-69
2022/11/03 12:13:50;;;;;;;1.95;1.75;;;18.00;92.20;;;;;;5053606;28;20218;-69
2022/11/03 12:16:35;;;;;;;2.50;1.80;;;18.00;91.90;;;;;;5021087;28;20183;-70
2022/11/03 12:19:40;;;;;;;1.70;1.60;;;18.00;91.90;;;;;;5053783;28;20768;-69
2022/11/03 12:22:28;;;;;;;2.63;1.63;;;18.00;92.10;;;;;;5037008;28;20242;-70
2022/11/03 12:24:57;;;;;;;2.58;1.85;;;18.00;91.90;;;;;;5053952;28;20190;-70
2022/11/03 12:27:23;;;;;;;3.53;1.73;;;18.00;92.00;;;;;;5037308;28;20225;-69
2022/11/03 12:30:01;;;;;;;2.70;1.70;;;18.00;91.90;;;;;;5053735;28;20233;-70
2022/11/03 12:32:27;;;;;;;3.42;2.00;;;18.00;91.90;;;;;;5054817;28;20181;-69
2022/11/03 12:34:54;;;;;;;1.70;1.60;;;18.00;92.10;;;;;;5056252;28;20178;-69
2022/11/03 12:37:20;;;;;;;2.20;1.65;;;18.00;92.10;;;;;;5037797;28;20274;-69
2022/11/03 12:39:45;;;;;;;2.10;1.90;;;18.00;92.10;;;;;;5058363;28;20653;-69
2022/11/03 12:42:11;;;;;;;3.70;1.60;;;18.00;92.20;;;;;;5034965;28;20171;-70
2022/11/03 12:44:37;;;;;;;2.47;2.00;;;18.00;92.10;;;;;;5047623;28;20193;-69
2022/11/03 12:47:03;;;;;;;3.05;1.83;;;18.00;92.30;;;;;;5034488;28;20191;-69
2022/11/03 12:49:29;;;;;;;2.05;1.85;;;18.00;92.20;;;;;;5035560;28;20210;-69
2022/11/03 12:51:55;;;;;;;2.78;2.00;;;18.00;92.60;;;;;;5028687;28;20183;-70
2022/11/03 12:54:21;;;;;;;1.88;1.63;;;18.10;92.40;;;;;;5036924;28;20236;-70
2022/11/03 12:56:47;;;;;;;2.33;1.77;;;18.00;92.20;;;;;;5035659;28;20199;-70
2022/11/03 12:59:12;;;;;;;3.95;2.15;;;18.00;92.30;;;;;;5032936;28;20199;-70
2022/11/03 13:01:38;;;;;;;2.72;1.90;;;18.00;92.20;;;;;;5050170;28;20268;-70
2022/11/03 13:04:07;;;;;;;2.00;1.80;;;18.00;92.40;;;;;;5036742;28;20191;-69
2022/11/03 13:06:33;;;;;;;2.53;1.70;;;18.00;92.10;;;;;;5053224;28;20236;-70
2022/11/03 13:08:58;;;;;;;2.40;1.77;;;18.00;92.20;;;;;;5036389;28;20206;-70
2022/11/03 13:14:08;;;;;;;3.00;2.03;;;18.10;92.20;;;;;;5053470;28;20269;-70
2022/11/03 13:16:34;;;;;;;2.60;1.85;;;18.00;92.30;;;;;;5036325;28;20254;-70
2022/11/03 13:19:00;;;;;;;2.03;1.60;;;18.00;92.10;;;;;;5049514;28;20302;-69
2022/11/03 13:21:26;;;;;;;2.85;1.73;;;18.00;92.30;;;;;;5049484;28;20593;-70
2022/11/03 13:23:52;;;;;;;2.72;2.00;;;18.00;92.50;;;;;;5033086;28;20187;-69
2022/11/03 13:26:18;;;;;;;2.92;1.88;;;18.00;92.30;;;;;;5032714;28;20175;-70
2022/11/03 13:28:44;;;;;;;2.42;1.73;;;18.00;92.30;;;;;;5034104;28;20210;-70
2022/11/03 13:31:11;;;;;;;2.22;1.80;;;18.00;92.40;;;;;;5049305;28;20191;-69